createdAt,value
2022-11-12T00:02:02.558Z,42.37
2022-11-12T00:04:29.514Z,43.63
2022-11-12T00:06:56.398Z,47.27
2022-11-12T00:09:23.183Z,46.93
2022-11-12T00:11:49.843Z,44.70
2022-11-12T00:14:18.057Z,45.90
2022-11-12T00:16:47.114Z,51.20
2022-11-12T00:19:13.770Z,54.23
2022-11-12T00:21:42.937Z,52.77
2022-11-12T00:24:11.979Z,52.90
2022-11-12T00:26:39.285Z,53.87
2022-11-12T00:29:10.135Z,50.73
2022-11-12T00:31:39.216Z,47.37
2022-11-12T00:34:10.773Z,46.43
2022-11-12T00:36:43.372Z,48.37
2022-11-12T00:39:15.416Z,46.93
2022-11-12T00:41:44.544Z,48.10
2022-11-12T00:44:17.145Z,46.40
2022-11-12T00:46:48.832Z,44.83
2022-11-12T00:49:18.383Z,45.30
2022-11-12T00:51:50.548Z,45.40
2022-11-12T00:54:17.240Z,43.60
2022-11-12T00:56:46.282Z,44.00
2022-11-12T00:59:14.842Z,45.20
2022-11-12T01:01:41.558Z,46.63
2022-11-12T01:04:11.446Z,47.93
2022-11-12T01:06:43.581Z,47.47
2022-11-12T01:09:11.563Z,48.37
2022-11-12T01:11:40.958Z,49.20
2022-11-12T01:14:10.309Z,48.53
2022-11-12T01:16:37.965Z,49.33
2022-11-12T01:19:05.070Z,47.80
2022-11-12T01:21:31.953Z,51.67
2022-11-12T01:24:03.461Z,54.33
2022-11-12T01:26:30.164Z,59.03
2022-11-12T01:29:00.857Z,76.43
2022-11-12T01:31:28.318Z,79.30
2022-11-12T01:33:56.076Z,68.70
2022-11-12T01:36:24.712Z,75.83
2022-11-12T01:38:52.272Z,76.40
2022-11-12T01:41:20.306Z,70.23
2022-11-12T01:43:46.815Z,68.67
2022-11-12T01:46:20.813Z,65.87
2022-11-12T01:48:58.539Z,66.93
2022-11-12T01:51:26.021Z,53.63
2022-11-12T01:53:53.600Z,52.60
2022-11-12T01:56:20.181Z,50.77
2022-11-12T01:58:46.883Z,51.77
2022-11-12T02:01:15.270Z,49.70
2022-11-12T02:03:41.952Z,50.93
2022-11-12T02:06:10.228Z,54.27
2022-11-12T02:08:36.856Z,52.60
2022-11-12T02:11:16.044Z,50.70
2022-11-12T02:14:01.572Z,49.97
2022-11-12T02:16:40.906Z,51.70
2022-11-12T02:19:08.571Z,48.87
2022-11-12T02:21:36.554Z,51.07
2022-11-12T02:24:04.404Z,51.07
2022-11-12T02:26:35.044Z,52.27
2022-11-12T02:29:03.096Z,52.13
2022-11-12T02:31:32.557Z,48.87
2022-11-12T02:33:59.327Z,45.90
2022-11-12T02:36:26.149Z,45.20
2022-11-12T02:38:52.830Z,44.63
2022-11-12T02:41:19.613Z,47.33
2022-11-12T02:43:46.277Z,42.10
2022-11-12T02:46:15.317Z,42.57
2022-11-12T02:48:41.969Z,45.77
2022-11-12T02:51:08.708Z,42.77
2022-11-12T02:53:37.668Z,45.53
2022-11-12T02:56:06.732Z,46.70
2022-11-12T02:58:33.492Z,47.40
2022-11-12T03:01:00.307Z,43.27
2022-11-12T03:03:27.188Z,43.30
2022-11-12T03:06:02.794Z,44.33
2022-11-12T03:08:29.574Z,44.80
2022-11-12T03:10:56.450Z,46.17
2022-11-12T03:13:23.063Z,45.80
2022-11-12T03:15:52.651Z,44.10
2022-11-12T03:18:19.335Z,44.87
2022-11-12T03:20:45.985Z,43.87
2022-11-12T03:23:12.707Z,45.17
2022-11-12T03:25:39.336Z,44.23
2022-11-12T03:28:06.886Z,43.23
2022-11-12T03:30:34.297Z,43.57
2022-11-12T03:33:01.013Z,42.97
2022-11-12T03:35:29.051Z,40.37
2022-11-12T03:37:55.795Z,42.00
2022-11-12T03:40:27.326Z,42.87
2022-11-12T03:42:54.847Z,43.13
2022-11-12T03:45:24.406Z,43.03
2022-11-12T03:47:56.158Z,42.30
2022-11-12T03:50:25.675Z,42.33
2022-11-12T03:52:53.154Z,41.80
2022-11-12T03:55:20.391Z,43.10
2022-11-12T03:57:51.050Z,42.30
2022-11-12T04:00:32.767Z,39.93
2022-11-12T04:02:59.578Z,41.13
2022-11-12T04:05:46.716Z,39.37
2022-11-12T04:08:34.612Z,39.20
2022-11-12T04:11:07.245Z,39.97
2022-11-12T04:13:38.745Z,41.77
2022-11-12T04:16:28.218Z,41.27
2022-11-12T04:19:15.592Z,38.33
2022-11-12T04:22:03.481Z,39.93
2022-11-12T04:24:49.270Z,40.13
2022-11-12T04:27:16.981Z,42.13
2022-11-12T04:30:04.638Z,40.33
2022-11-12T04:32:33.626Z,39.90
2022-11-12T04:35:01.961Z,39.53
2022-11-12T04:37:29.468Z,38.43
2022-11-12T04:40:16.048Z,37.90
2022-11-12T04:43:01.336Z,40.60
2022-11-12T04:45:27.996Z,36.43
2022-11-12T04:47:55.032Z,38.07
2022-11-12T04:50:24.172Z,37.67
2022-11-12T04:52:50.781Z,39.03
2022-11-12T04:55:19.764Z,39.17
2022-11-12T04:57:46.390Z,38.57
2022-11-12T05:00:13.571Z,39.03
2022-11-12T05:02:42.171Z,38.57
2022-11-12T05:05:08.806Z,38.27
2022-11-12T05:07:35.502Z,37.50
2022-11-12T05:10:02.147Z,37.93
2022-11-12T05:12:28.812Z,37.67
2022-11-12T05:14:56.030Z,36.90
2022-11-12T05:17:22.661Z,35.17
2022-11-12T05:19:50.063Z,37.47
2022-11-12T05:22:42.043Z,35.47
2022-11-12T05:25:05.956Z,36.57
2022-11-12T05:27:32.922Z,39.80
2022-11-12T05:30:02.899Z,36.40
2022-11-12T05:32:31.852Z,36.93
2022-11-12T05:35:00.844Z,36.83
2022-11-12T05:37:27.419Z,36.00
2022-11-12T05:39:54.057Z,34.63
2022-11-12T05:42:20.714Z,35.57
2022-11-12T05:44:47.382Z,37.00
2022-11-12T05:47:38.363Z,35.37
2022-11-12T05:50:07.746Z,35.80
2022-11-12T05:52:34.443Z,35.40
2022-11-12T05:55:01.073Z,36.40
2022-11-12T05:57:27.985Z,35.83
2022-11-12T05:59:54.579Z,36.93
2022-11-12T06:02:21.458Z,38.27
2022-11-12T06:04:48.164Z,36.60
2022-11-12T06:07:15.007Z,36.00
2022-11-12T06:09:41.769Z,36.27
2022-11-12T06:12:08.651Z,37.00
2022-11-12T06:14:36.925Z,38.60
2022-11-12T06:17:03.617Z,38.03
2022-11-12T06:19:30.313Z,38.00
2022-11-12T06:21:56.963Z,36.70
2022-11-12T06:24:23.662Z,37.53
2022-11-12T06:26:50.283Z,38.17
2022-11-12T06:29:16.987Z,36.37
2022-11-12T06:31:43.600Z,36.33
2022-11-12T06:34:10.287Z,36.20
2022-11-12T06:36:37.215Z,36.70
2022-11-12T06:39:04.000Z,34.60
2022-11-12T06:41:30.530Z,35.97
2022-11-12T06:43:57.140Z,33.67
2022-11-12T06:46:25.085Z,34.87
2022-11-12T06:48:51.835Z,35.53
2022-11-12T06:51:19.125Z,33.93
2022-11-12T06:53:47.896Z,34.20
2022-11-12T06:56:17.231Z,34.97
2022-11-12T06:58:43.863Z,33.53
2022-11-12T07:01:12.454Z,35.80
2022-11-12T07:03:39.807Z,37.80
2022-11-12T07:06:07.197Z,38.47
2022-11-12T07:08:33.960Z,37.07
2022-11-12T07:11:01.131Z,40.20
2022-11-12T07:13:29.524Z,39.90
2022-11-12T07:15:57.178Z,36.83
2022-11-12T07:18:24.602Z,34.83
2022-11-12T07:20:52.384Z,34.17
2022-11-12T07:23:19.118Z,30.57
2022-11-12T07:25:45.774Z,30.23
2022-11-12T07:28:12.437Z,31.63
2022-11-12T07:30:39.144Z,29.93
2022-11-12T07:33:05.868Z,39.60
2022-11-12T07:35:32.555Z,35.90
2022-11-12T07:38:01.613Z,38.70
2022-11-12T07:40:29.423Z,40.73
2022-11-12T07:42:56.192Z,41.00
2022-11-12T07:45:23.144Z,42.17
2022-11-12T07:47:51.766Z,39.03
2022-11-12T07:50:21.298Z,38.57
2022-11-12T07:52:47.916Z,41.67
2022-11-12T07:55:14.558Z,39.47
2022-11-12T07:57:41.220Z,37.10
2022-11-12T08:00:08.220Z,38.27
2022-11-12T08:02:34.999Z,38.23
2022-11-12T08:05:01.804Z,37.63
2022-11-12T08:07:28.724Z,36.80
2022-11-12T08:09:55.613Z,33.07
2022-11-12T08:12:24.636Z,32.77
2022-11-12T08:14:58.190Z,32.57
2022-11-12T08:17:29.423Z,31.83
2022-11-12T08:20:01.631Z,30.60
2022-11-12T08:22:49.217Z,29.30
2022-11-12T14:41:56.005Z,7.03
2022-11-12T14:47:15.523Z,8.37
2022-11-12T14:55:22.472Z,8.15
2022-11-12T15:03:50.757Z,6.65
2022-11-12T15:09:43.330Z,6.55
2022-11-12T15:12:12.354Z,6.72
2022-11-12T15:22:55.030Z,8.10
2022-11-12T15:25:26.073Z,8.40
2022-11-12T15:28:09.378Z,8.73
2022-11-12T15:30:48.747Z,7.40
2022-11-12T15:33:20.735Z,7.97
2022-11-12T15:35:52.350Z,10.30
2022-11-12T15:38:35.414Z,10.63
2022-11-12T15:41:05.978Z,10.93
2022-11-12T15:43:48.333Z,11.53
2022-11-12T15:46:21.625Z,13.20
2022-11-12T15:48:56.561Z,16.63
2022-11-12T15:51:34.457Z,15.82
2022-11-12T15:54:14.354Z,14.90
2022-11-12T15:56:47.562Z,14.23
2022-11-12T15:59:17.806Z,15.77
2022-11-12T16:01:48.346Z,18.80
2022-11-12T16:04:35.042Z,19.40
2022-11-12T16:07:03.758Z,19.97
2022-11-12T16:09:31.872Z,19.60
2022-11-12T16:12:00.833Z,23.57
2022-11-12T16:14:27.806Z,25.93
2022-11-12T16:16:54.574Z,30.93
2022-11-12T16:19:23.889Z,28.00
2022-11-12T16:21:54.590Z,26.77
2022-11-12T16:24:21.410Z,27.30
2022-11-12T16:26:49.468Z,26.83
2022-11-12T16:29:16.685Z,24.47
2022-11-12T16:31:44.379Z,30.80
2022-11-12T16:34:11.407Z,33.37
2022-11-12T16:36:42.180Z,33.00
2022-11-12T16:39:09.935Z,31.37
2022-11-12T16:41:49.253Z,31.87
2022-11-12T16:44:16.091Z,35.90
2022-11-12T16:46:45.278Z,29.13
2022-11-12T16:49:12.609Z,27.80
2022-11-12T16:51:39.316Z,31.10
2022-11-12T16:54:06.294Z,26.27
2022-11-12T16:57:01.120Z,29.63
2022-11-12T16:59:25.875Z,32.60
2022-11-12T17:01:52.481Z,31.57
2022-11-12T17:04:22.585Z,30.93
2022-11-12T17:06:49.649Z,28.57
2022-11-12T17:09:19.032Z,29.83
2022-11-12T17:11:45.849Z,29.80
2022-11-12T17:14:12.533Z,27.53
2022-11-12T17:16:41.568Z,27.80
2022-11-12T17:19:09.735Z,25.60
2022-11-12T17:21:36.371Z,24.67
2022-11-12T17:24:05.409Z,29.63
2022-11-12T17:26:33.493Z,25.93
2022-11-12T17:29:04.910Z,25.83
2022-11-12T17:31:38.172Z,26.30
2022-11-12T17:34:08.036Z,25.03
2022-11-12T17:36:36.925Z,30.37
2022-11-12T17:39:05.974Z,28.43
2022-11-12T17:41:33.191Z,23.10
2022-11-12T17:43:59.937Z,35.73
2022-11-12T17:46:26.687Z,31.57
2022-11-12T17:48:53.587Z,34.27
2022-11-12T17:51:20.549Z,39.17
2022-11-12T17:53:47.205Z,46.97
2022-11-12T17:56:17.201Z,37.13
2022-11-12T17:58:45.681Z,35.70
2022-11-12T18:01:19.096Z,36.40
2022-11-12T18:03:50.513Z,37.43
2022-11-12T18:06:18.776Z,41.00
2022-11-12T18:08:46.677Z,40.40
2022-11-12T18:11:14.030Z,39.47
2022-11-12T18:13:40.855Z,37.50
2022-11-12T18:16:15.235Z,38.40
2022-11-12T18:18:41.968Z,38.00
2022-11-12T18:21:09.790Z,37.30
2022-11-12T18:23:37.821Z,35.53
2022-11-12T18:26:06.918Z,34.40
2022-11-12T18:28:35.032Z,33.93
2022-11-12T18:31:05.525Z,32.50
2022-11-12T18:33:32.426Z,32.20
2022-11-12T18:36:03.311Z,32.13
2022-11-12T18:38:40.076Z,31.67
2022-11-12T18:41:08.742Z,32.73
2022-11-12T18:43:38.846Z,30.93
2022-11-12T18:46:07.854Z,31.27
2022-11-12T18:48:34.787Z,30.03
2022-11-12T18:51:02.586Z,31.87
2022-11-12T18:53:31.449Z,29.50
2022-11-12T18:56:02.281Z,32.20
2022-11-12T18:58:34.690Z,31.37
2022-11-12T19:01:02.927Z,31.83
2022-11-12T19:03:29.981Z,32.67
2022-11-12T19:06:00.180Z,31.23
2022-11-12T19:08:30.426Z,34.13
2022-11-12T19:10:57.886Z,34.80
2022-11-12T19:13:25.834Z,35.27
2022-11-12T19:15:52.737Z,34.27
2022-11-12T19:18:21.917Z,39.47
2022-11-12T19:20:48.629Z,41.73
2022-11-12T19:23:15.600Z,40.60
2022-11-12T19:25:42.409Z,41.57
2022-11-12T19:28:10.315Z,43.70
2022-11-12T19:30:39.271Z,43.23
2022-11-12T19:33:05.933Z,44.83
2022-11-12T19:35:32.645Z,46.73
2022-11-12T19:38:01.763Z,40.30
2022-11-12T19:40:28.499Z,42.93
2022-11-12T19:42:55.142Z,35.77
2022-11-12T19:45:21.943Z,35.00
2022-11-12T19:47:54.022Z,31.73
2022-11-12T19:50:24.594Z,31.80
2022-11-12T19:52:54.998Z,34.70
2022-11-12T19:55:21.694Z,34.17
2022-11-12T19:57:48.397Z,32.50
2022-11-12T20:00:15.606Z,30.93
2022-11-12T20:02:42.330Z,32.93
2022-11-12T20:05:10.732Z,31.23
2022-11-12T20:07:39.449Z,29.27
2022-11-12T20:10:07.407Z,32.33
2022-11-12T20:12:34.738Z,32.50
2022-11-12T20:15:01.484Z,28.83
2022-11-12T20:17:32.237Z,33.23
2022-11-12T20:20:07.898Z,33.23
2022-11-12T20:22:34.714Z,36.13
2022-11-12T20:25:04.648Z,36.43
2022-11-12T20:27:31.339Z,39.23
2022-11-12T20:29:58.123Z,40.10
2022-11-12T20:32:27.021Z,38.33
2022-11-12T20:34:54.562Z,40.17
2022-11-12T20:37:26.209Z,40.97
2022-11-12T20:39:55.266Z,38.17
2022-11-12T20:42:23.820Z,39.97
2022-11-12T20:44:50.506Z,37.87
2022-11-12T20:47:18.275Z,31.67
2022-11-12T20:49:45.250Z,31.70
2022-11-12T20:52:11.974Z,35.33
2022-11-12T20:54:39.802Z,35.30
2022-11-12T20:57:06.521Z,37.27
2022-11-12T20:59:33.669Z,32.10
2022-11-12T21:02:00.391Z,30.40
2022-11-12T21:04:27.023Z,30.83
2022-11-12T21:06:59.641Z,29.43
2022-11-12T21:09:31.311Z,34.53
2022-11-12T21:11:59.924Z,31.33
2022-11-12T21:14:26.542Z,33.40
2022-11-12T21:16:53.323Z,36.70
2022-11-12T21:19:20.165Z,38.77
2022-11-12T21:21:46.857Z,38.70
2022-11-12T21:24:15.957Z,37.23
2022-11-12T21:26:42.667Z,35.87
2022-11-12T21:29:09.241Z,36.27
2022-11-12T21:31:35.920Z,37.37
2022-11-12T21:34:07.141Z,36.67
2022-11-12T21:36:35.624Z,34.87
2022-11-12T21:39:02.863Z,35.33
2022-11-12T21:41:31.317Z,34.90
2022-11-12T21:43:57.978Z,34.63
2022-11-12T21:46:27.231Z,32.97
2022-11-12T21:48:55.325Z,36.10
2022-11-12T21:51:26.747Z,34.30
2022-11-12T21:53:54.221Z,33.90
2022-11-12T21:56:21.001Z,30.33
2022-11-12T21:58:50.277Z,30.73
2022-11-12T22:01:17.696Z,32.53
2022-11-12T22:03:44.535Z,32.93
2022-11-12T22:06:11.322Z,33.17
2022-11-12T22:08:37.993Z,32.40
2022-11-12T22:11:05.457Z,31.90
2022-11-12T22:13:32.164Z,32.33
2022-11-12T22:16:02.748Z,32.53
2022-11-12T22:18:34.526Z,33.33
2022-11-12T22:21:04.791Z,33.53
2022-11-12T22:23:38.691Z,34.53
2022-11-12T22:26:06.004Z,32.83
2022-11-12T22:28:33.941Z,34.73
2022-11-12T22:31:07.417Z,34.60
2022-11-12T22:33:34.773Z,34.67
2022-11-12T22:36:07.448Z,34.33
2022-11-12T22:38:38.990Z,36.60
2022-11-12T22:41:06.461Z,36.00
2022-11-12T22:43:34.681Z,33.00
2022-11-12T22:46:07.507Z,35.00
2022-11-12T22:48:34.209Z,33.30
2022-11-12T22:51:01.711Z,35.87
2022-11-12T22:53:29.895Z,35.23
2022-11-12T22:56:01.472Z,32.80
2022-11-12T22:58:37.684Z,34.57
2022-11-12T23:01:05.467Z,35.40
2022-11-12T23:03:32.423Z,34.73
2022-11-12T23:05:59.373Z,34.27
2022-11-12T23:08:26.401Z,32.80
2022-11-12T23:10:53.388Z,32.67
2022-11-12T23:13:20.035Z,32.60
2022-11-12T23:15:46.737Z,30.70
2022-11-12T23:18:13.356Z,33.73
2022-11-12T23:20:39.920Z,34.83
2022-11-12T23:23:06.652Z,33.00
2022-11-12T23:25:33.407Z,30.40
2022-11-12T23:28:01.647Z,32.07
2022-11-12T23:30:28.360Z,32.83
2022-11-12T23:32:56.445Z,33.40
2022-11-12T23:35:23.146Z,33.53
2022-11-12T23:37:55.955Z,32.97
2022-11-12T23:40:29.795Z,32.37
2022-11-12T23:43:14.846Z,32.90
2022-11-12T23:45:51.645Z,34.67
2022-11-12T23:48:26.888Z,33.73
2022-11-12T23:50:59.990Z,29.73
2022-11-12T23:53:26.790Z,32.93
2022-11-12T23:55:53.612Z,34.70
2022-11-12T23:58:28.477Z,29.70
